createdAt,value
2024-04-23T00:01:41.048Z,102542.63
2024-04-23T00:04:08.038Z,102543.09
2024-04-23T00:06:34.719Z,102538.97
2024-04-23T00:09:01.325Z,102541.31
2024-04-23T00:11:30.008Z,102530.69
2024-04-23T00:13:56.732Z,102521.16
2024-04-23T00:16:23.456Z,102529.06
2024-04-23T00:18:50.786Z,102527.88
2024-04-23T00:21:17.449Z,102521.84
2024-04-23T00:23:45.502Z,102522.31
2024-04-23T00:26:12.112Z,102515.94
2024-04-23T00:28:38.765Z,102504.50
2024-04-23T00:31:05.356Z,102508.88
2024-04-23T00:33:32.026Z,102503.09
2024-04-23T00:35:58.603Z,102509.69
2024-04-23T00:38:25.221Z,102505.56
2024-04-23T00:40:51.863Z,102494.13
2024-04-23T00:43:18.472Z,102487.06
2024-04-23T00:45:48.870Z,102495.63
2024-04-23T00:48:17.478Z,102486.09
2024-04-23T00:50:47.502Z,102486.31
2024-04-23T00:53:17.174Z,102481.97
2024-04-23T00:55:43.926Z,102483.47
2024-04-23T00:58:16.161Z,102478.28
2024-04-23T01:00:43.131Z,102483.13
2024-04-23T01:03:10.152Z,102481.09
2024-04-23T01:05:37.061Z,102483.22
2024-04-23T01:08:03.774Z,102479.94
2024-04-23T01:10:30.767Z,102485.78
2024-04-23T01:12:57.553Z,102480.84
2024-04-23T01:15:27.139Z,102474.84
2024-04-23T01:17:57.916Z,102475.06
2024-04-23T01:20:28.325Z,102475.28
2024-04-23T01:23:11.889Z,102475.75
2024-04-23T01:25:41.793Z,102461.63
2024-04-23T01:28:11.163Z,102467.47
2024-04-23T01:30:37.913Z,102462.75
2024-04-23T01:33:08.073Z,102460.72
2024-04-23T01:35:38.455Z,102445.59
2024-04-23T01:38:06.161Z,102458.97
2024-04-23T01:40:35.358Z,102449.66
2024-04-23T01:43:03.636Z,102455.28
2024-04-23T01:45:31.979Z,102449.50
2024-04-23T01:47:58.770Z,102453.25
2024-04-23T01:50:25.515Z,102445.84
2024-04-23T01:52:52.564Z,102447.34
2024-04-23T01:55:20.402Z,102445.31
2024-04-23T01:57:47.490Z,102444.97
2024-04-23T02:00:23.597Z,102445.41
2024-04-23T02:02:55.883Z,102442.34
2024-04-23T02:05:26.241Z,102449.84
2024-04-23T02:07:57.632Z,102446.53
2024-04-23T02:10:26.774Z,102439.56
2024-04-23T02:12:53.627Z,102446.00
2024-04-23T02:15:22.456Z,102448.56
2024-04-23T02:17:50.602Z,102450.88
2024-04-23T02:20:17.589Z,102441.94
2024-04-23T02:22:44.246Z,102444.88
2024-04-23T02:25:10.878Z,102437.25
2024-04-23T02:27:37.605Z,102441.66
2024-04-23T02:30:04.878Z,102435.88
2024-04-23T02:32:31.910Z,102439.25
2024-04-23T02:35:00.088Z,102437.81
2024-04-23T02:37:29.031Z,102446.13
2024-04-23T02:39:55.612Z,102434.50
2024-04-23T02:42:22.329Z,102442.00
2024-04-23T02:44:49.229Z,102439.75
2024-04-23T02:47:24.916Z,102439.16
2024-04-23T02:49:51.539Z,102437.50
2024-04-23T02:52:19.453Z,102431.50
2024-04-23T02:54:48.862Z,102434.41
2024-04-23T02:57:15.610Z,102438.97
2024-04-23T02:59:42.169Z,102438.97
2024-04-23T03:02:12.010Z,102430.88
2024-04-23T03:04:38.766Z,102423.25
2024-04-23T03:07:05.482Z,102432.41
2024-04-23T03:09:32.292Z,102440.50
2024-04-23T03:11:58.890Z,102431.19
2024-04-23T03:14:25.533Z,102429.53
2024-04-23T03:16:52.792Z,102427.28
2024-04-23T03:19:22.347Z,102432.69
2024-04-23T03:21:56.258Z,102431.25
2024-04-23T03:24:25.692Z,102425.25
2024-04-23T03:26:52.699Z,102423.59
2024-04-23T03:29:20.035Z,102427.34
2024-04-23T03:31:48.310Z,102419.91
2024-04-23T03:34:15.054Z,102423.25
2024-04-23T03:36:44.894Z,102424.75
2024-04-23T03:39:11.777Z,102422.72
2024-04-23T03:41:38.344Z,102416.94
2024-04-23T03:44:05.196Z,102419.03
2024-04-23T03:46:31.864Z,102421.13
2024-04-23T03:48:58.491Z,102420.13
2024-04-23T03:51:25.238Z,102422.00
2024-04-23T03:53:51.841Z,102418.91
2024-04-23T03:56:20.182Z,102413.34
2024-04-23T03:59:44.751Z,102412.13
2024-04-23T04:03:21.557Z,102411.16
2024-04-23T04:06:05.733Z,102404.31
2024-04-23T04:08:58.176Z,102411.19
2024-04-23T04:12:18.108Z,102406.84
2024-04-23T04:19:17.218Z,102397.53
2024-04-23T04:21:43.831Z,102402.94
2024-04-23T04:24:10.448Z,102394.84
2024-04-23T04:26:37.025Z,102399.84
2024-04-23T04:29:03.892Z,102400.06
2024-04-23T04:31:30.594Z,102401.72
2024-04-23T04:33:58.282Z,102399.84
2024-04-23T04:36:24.911Z,102406.88
2024-04-23T04:38:54.331Z,102407.94
2024-04-23T04:41:22.701Z,102406.72
2024-04-23T04:43:52.993Z,102414.81
2024-04-23T04:46:19.961Z,102409.41
2024-04-23T04:48:49.311Z,102401.09
2024-04-23T04:51:16.028Z,102410.63
2024-04-23T04:53:42.752Z,102403.97
2024-04-23T04:56:09.353Z,102411.84
2024-04-23T04:58:43.313Z,102408.13
2024-04-23T05:01:14.108Z,102407.69
2024-04-23T05:03:40.800Z,102412.25
2024-04-23T05:06:11.807Z,102402.06
2024-04-23T05:08:38.369Z,102395.41
2024-04-23T05:11:12.464Z,102400.38
2024-04-23T05:13:39.227Z,102396.63
2024-04-23T05:16:06.129Z,102399.69
2024-04-23T05:18:34.444Z,102393.63
2024-04-23T05:21:02.752Z,102398.38
2024-04-23T05:23:29.472Z,102400.63
2024-04-23T05:25:56.234Z,102398.53
2024-04-23T05:28:22.867Z,102405.16
2024-04-23T05:31:13.685Z,102400.75
2024-04-23T05:33:40.348Z,102396.09
2024-04-23T05:36:07.270Z,102402.03
2024-04-23T05:38:34.123Z,102402.81
2024-04-23T05:41:00.971Z,102400.00
2024-04-23T05:43:27.867Z,102400.16
2024-04-23T05:45:54.486Z,102396.44
2024-04-23T05:48:58.933Z,102394.06
2024-04-23T05:52:29.684Z,102396.38
2024-04-23T05:55:32.781Z,102400.22
2024-04-23T05:57:59.880Z,102400.16
2024-04-23T06:00:27.803Z,102398.28
2024-04-23T06:02:56.895Z,102397.78
2024-04-23T06:05:24.762Z,102393.69
2024-04-23T06:07:52.014Z,102405.69
2024-04-23T06:10:19.204Z,102404.28
2024-04-23T06:12:51.290Z,102398.41
2024-04-23T06:15:19.620Z,102396.66
2024-04-23T06:17:48.302Z,102407.63
2024-04-23T06:20:16.109Z,102408.91
2024-04-23T06:22:43.902Z,102405.16
2024-04-23T06:25:11.585Z,102399.75
2024-04-23T06:27:42.272Z,102401.00
2024-04-23T06:30:12.812Z,102393.91
2024-04-23T06:32:57.128Z,102390.81
2024-04-23T06:35:24.986Z,102391.25
2024-04-23T06:37:51.594Z,102402.56
2024-04-23T06:40:19.322Z,102394.81
2024-04-23T06:42:46.389Z,102400.47
2024-04-23T06:45:12.980Z,102396.56
2024-04-23T06:47:53.615Z,102390.25
2024-04-23T06:50:20.901Z,102386.66
2024-04-23T06:52:50.679Z,102385.88
2024-04-23T06:55:17.535Z,102372.97
2024-04-23T06:57:44.748Z,102375.53
2024-04-23T07:00:11.631Z,102362.97
2024-04-23T07:02:38.289Z,102376.34
2024-04-23T07:05:05.854Z,102365.31
2024-04-23T07:07:32.797Z,102370.97
2024-04-23T07:09:59.463Z,102365.38
2024-04-23T07:12:26.022Z,102368.13
2024-04-23T07:14:52.641Z,102374.38
2024-04-23T07:17:20.320Z,102368.69
2024-04-23T07:19:48.694Z,102370.28
2024-04-23T07:22:17.920Z,102361.81
2024-04-23T07:24:44.507Z,102364.94
2024-04-23T07:27:11.101Z,102355.22
2024-04-23T07:29:37.671Z,102353.50
2024-04-23T07:32:04.556Z,102352.88
2024-04-23T07:34:31.149Z,102347.03
2024-04-23T07:36:57.757Z,102339.28
2024-04-23T07:39:24.446Z,102334.84
2024-04-23T07:41:51.048Z,102334.81
2024-04-23T07:44:17.655Z,102335.09
2024-04-23T07:46:44.609Z,102334.78
2024-04-23T07:49:11.623Z,102332.34
2024-04-23T07:51:40.118Z,102332.69
2024-04-23T07:54:06.918Z,102327.75
2024-04-23T07:56:35.991Z,102323.75
2024-04-23T07:59:02.662Z,102326.44
2024-04-23T08:01:29.395Z,102324.59
2024-04-23T08:03:56.081Z,102330.00
2024-04-23T08:06:24.965Z,102318.69
2024-04-23T08:08:54.602Z,102319.22
2024-04-23T08:11:24.506Z,102323.47
2024-04-23T08:13:51.568Z,102315.31
2024-04-23T08:16:18.188Z,102314.53
2024-04-23T08:18:44.863Z,102314.69
2024-04-23T08:21:15.061Z,102311.13
2024-04-23T08:23:44.373Z,102319.81
2024-04-23T08:26:16.756Z,102314.28
2024-04-23T08:28:47.964Z,102312.34
2024-04-23T08:31:19.334Z,102310.91
2024-04-23T08:33:50.409Z,102309.06
2024-04-23T08:36:19.386Z,102309.50
2024-04-23T08:38:46.386Z,102303.03
2024-04-23T08:41:17.941Z,102303.47
2024-04-23T08:44:03.997Z,102303.78
2024-04-23T08:46:31.509Z,102310.91
2024-04-23T08:48:59.635Z,102309.34
2024-04-23T08:51:26.887Z,102307.31
2024-04-23T08:53:54.993Z,102293.72
2024-04-23T08:56:24.151Z,102298.16
2024-04-23T08:58:57.492Z,102291.81
2024-04-23T09:01:40.352Z,102285.38
2024-04-23T09:04:11.724Z,102272.69
2024-04-23T09:07:25.060Z,102275.41
2024-04-23T09:10:13.321Z,102271.78
2024-04-23T09:13:05.255Z,102269.19
2024-04-23T09:15:32.036Z,102264.44
2024-04-23T09:20:48.449Z,102263.47
2024-04-23T09:21:15.486Z,102268.28
2024-04-23T09:23:45.676Z,102258.25
2024-04-23T09:26:12.949Z,102252.09
2024-04-23T09:28:48.693Z,102251.69
2024-04-23T09:31:24.620Z,102244.63
2024-04-23T09:33:57.952Z,102243.25
2024-04-23T09:36:33.330Z,102239.91
2024-04-23T09:39:00.452Z,102238.28
2024-04-23T09:41:32.633Z,102234.88
2024-04-23T09:44:00.872Z,102218.94
2024-04-23T09:46:34.065Z,102214.19
2024-04-23T09:49:11.148Z,102227.69
2024-04-23T09:51:41.655Z,102211.00
2024-04-23T09:54:08.338Z,102214.69
2024-04-23T09:56:36.165Z,102215.97
2024-04-23T09:59:02.853Z,102215.84
2024-04-23T10:01:29.992Z,102210.38
2024-04-23T10:04:04.941Z,102210.81
2024-04-23T10:06:39.292Z,102202.03
2024-04-23T10:09:21.422Z,102201.88
2024-04-23T10:12:50.926Z,102196.03
2024-04-23T10:15:44.019Z,102188.78
2024-04-23T10:18:26.024Z,102195.94
2024-04-23T10:21:25.327Z,102190.50
2024-04-23T10:23:57.694Z,102178.78
2024-04-23T10:26:24.945Z,102181.78
2024-04-23T10:28:53.978Z,102174.63
2024-04-23T10:31:22.531Z,102168.16
2024-04-23T10:33:51.956Z,102167.94
2024-04-23T10:36:19.727Z,102171.41
2024-04-23T10:38:51.006Z,102158.13
2024-04-23T10:41:23.664Z,102155.75
2024-04-23T10:43:54.690Z,102164.53
2024-04-23T10:46:21.720Z,102160.69
2024-04-23T10:48:58.278Z,102157.09
2024-04-23T10:51:26.730Z,102160.06
2024-04-23T10:53:53.687Z,102152.34
2024-04-23T10:56:25.319Z,102159.94
2024-04-23T10:59:02.736Z,102157.50
2024-04-23T11:01:29.569Z,102136.41
2024-04-23T11:03:58.028Z,102143.31
2024-04-23T11:06:37.272Z,102123.53
2024-04-23T11:09:22.230Z,102123.75
2024-04-23T11:11:51.993Z,102126.34
2024-04-23T11:14:18.839Z,102121.50
2024-04-23T11:16:46.800Z,102118.69
2024-04-23T11:19:25.886Z,102120.56
2024-04-23T11:21:56.449Z,102108.63
2024-04-23T11:24:25.464Z,102116.44
2024-04-23T11:26:55.689Z,102122.16
2024-04-23T11:29:23.528Z,102120.72
2024-04-23T11:31:54.257Z,102111.31
2024-04-23T11:34:22.654Z,102101.75
2024-04-23T11:36:51.173Z,102101.03
2024-04-23T11:39:28.218Z,102095.28
2024-04-23T11:41:57.372Z,102088.50
2024-04-23T11:44:23.985Z,102096.53
2024-04-23T11:46:50.810Z,102093.41
2024-04-23T11:49:18.397Z,102094.25
2024-04-23T11:51:46.552Z,102092.81
2024-04-23T11:54:16.135Z,102095.56
2024-04-23T11:56:43.061Z,102086.91
2024-04-23T11:59:10.682Z,102084.94
2024-04-23T12:01:41.962Z,102082.50
2024-04-23T12:04:10.597Z,102082.84
2024-04-23T12:06:46.841Z,102082.16
2024-04-23T12:09:17.606Z,102076.03
2024-04-23T12:11:48.548Z,102069.88
2024-04-23T12:14:15.270Z,102064.88
2024-04-23T12:16:43.792Z,102064.19
2024-04-23T12:19:13.246Z,102056.41
2024-04-23T12:21:41.496Z,102059.59
2024-04-23T12:24:14.320Z,102050.16
2024-04-23T12:26:41.179Z,102053.72
2024-04-23T12:29:10.414Z,102051.66
2024-04-23T12:31:40.886Z,102044.53
2024-04-23T12:34:07.535Z,102043.28
2024-04-23T12:36:36.705Z,102038.03
2024-04-23T12:39:14.167Z,102044.84
2024-04-23T12:41:40.940Z,102028.72
2024-04-23T12:44:18.043Z,102014.91
2024-04-23T12:46:45.153Z,102022.72
2024-04-23T12:49:12.726Z,102015.28
2024-04-23T12:51:39.563Z,102007.16
2024-04-23T12:54:10.252Z,102014.75
2024-04-23T12:56:37.220Z,102002.75
2024-04-23T12:59:05.521Z,101995.59
2024-04-23T13:01:41.767Z,101993.19
2024-04-23T13:04:12.128Z,101998.97
2024-04-23T13:06:39.440Z,101996.59
2024-04-23T13:09:06.942Z,101982.78
2024-04-23T13:11:33.682Z,101981.53
2024-04-23T13:14:00.635Z,101976.00
2024-04-23T13:16:38.999Z,101969.97
2024-04-23T13:19:12.907Z,101964.28
2024-04-23T13:21:39.675Z,101962.19
2024-04-23T13:24:06.603Z,101956.31
2024-04-23T13:26:33.704Z,101958.69
2024-04-23T13:29:00.978Z,101961.63
2024-04-23T13:31:27.667Z,101951.72
2024-04-23T13:33:56.956Z,101951.88
2024-04-23T13:36:29.534Z,101948.28
2024-04-23T13:39:10.966Z,101940.00
2024-04-23T13:41:37.693Z,101941.84
2024-04-23T13:44:08.788Z,101936.16
2024-04-23T13:46:39.666Z,101937.34
2024-04-23T13:49:08.306Z,101938.31
2024-04-23T13:51:34.923Z,101927.72
2024-04-23T13:54:01.641Z,101926.63
2024-04-23T13:56:28.343Z,101924.91
2024-04-23T13:58:55.064Z,101915.72
2024-04-23T14:01:21.857Z,101916.50
2024-04-23T14:03:48.661Z,101912.69
2024-04-23T14:06:16.362Z,101907.78
2024-04-23T14:08:43.298Z,101908.66
2024-04-23T14:11:10.158Z,101895.31
2024-04-23T14:13:37.554Z,101896.53
2024-04-23T14:16:11.309Z,101886.44
2024-04-23T14:18:44.070Z,101893.06
2024-04-23T14:21:12.143Z,101886.81
2024-04-23T14:23:39.583Z,101875.06
2024-04-23T14:26:06.623Z,101870.81
2024-04-23T14:28:35.616Z,101877.97
2024-04-23T14:31:05.356Z,101874.00
2024-04-23T14:33:32.448Z,101880.50
2024-04-23T14:36:05.715Z,101878.28
2024-04-23T14:38:35.605Z,101866.59
2024-04-23T14:41:11.499Z,101867.41
2024-04-23T14:43:38.218Z,101857.66
2024-04-23T14:46:12.840Z,101859.72
2024-04-23T14:48:40.104Z,101864.66
2024-04-23T14:51:08.174Z,101865.31
2024-04-23T14:53:37.993Z,101858.00
2024-04-23T14:56:05.926Z,101856.38
2024-04-23T14:58:36.142Z,101854.13
2024-04-23T15:01:20.714Z,101855.72
2024-04-23T15:03:55.138Z,101845.34
2024-04-23T15:06:25.791Z,101850.97
2024-04-23T15:08:53.642Z,101839.47
2024-04-23T15:11:20.323Z,101840.25
2024-04-23T15:13:50.006Z,101848.97
2024-04-23T15:16:16.995Z,101837.72
2024-04-23T15:18:44.252Z,101835.56
2024-04-23T15:21:15.617Z,101844.31
2024-04-23T15:23:45.054Z,101834.72
2024-04-23T15:26:11.974Z,101842.00
2024-04-23T15:28:43.538Z,101838.84
2024-04-23T15:31:10.516Z,101840.56
2024-04-23T15:33:42.048Z,101843.56
2024-04-23T15:36:17.212Z,101842.38
2024-04-23T15:38:54.826Z,101839.91
2024-04-23T15:41:21.501Z,101841.97
2024-04-23T15:43:51.472Z,101840.28
2024-04-23T15:46:18.500Z,101835.81
2024-04-23T15:48:47.973Z,101840.50
2024-04-23T15:51:14.926Z,101835.38
2024-04-23T15:53:41.557Z,101831.75
2024-04-23T15:56:11.368Z,101835.13
2024-04-23T15:58:39.032Z,101837.75
2024-04-23T16:01:07.788Z,101841.56
2024-04-23T16:03:36.061Z,101834.03
2024-04-23T16:06:06.724Z,101828.34
2024-04-23T16:08:34.047Z,101825.72
2024-04-23T16:11:04.621Z,101822.06
2024-04-23T16:13:32.452Z,101818.41
2024-04-23T16:16:00.092Z,101820.94
2024-04-23T16:18:31.005Z,101827.16
2024-04-23T16:21:07.554Z,101828.78
2024-04-23T16:23:34.988Z,101819.03
2024-04-23T16:26:03.025Z,101827.34
2024-04-23T16:28:29.720Z,101824.28
2024-04-23T16:31:04.234Z,101816.66
2024-04-23T16:33:40.249Z,101809.47
2024-04-23T16:36:09.082Z,101801.75
2024-04-23T16:38:39.603Z,101803.75
2024-04-23T16:41:10.030Z,101791.56
2024-04-23T16:43:37.465Z,101784.31
2024-04-23T16:46:10.691Z,101776.38
2024-04-23T16:48:40.202Z,101772.22
2024-04-23T16:51:09.589Z,101765.03
2024-04-23T16:53:37.699Z,101752.63
2024-04-23T16:56:05.064Z,101759.63
2024-04-23T16:58:31.981Z,101760.44
2024-04-23T17:00:58.661Z,101754.88
2024-04-23T17:03:25.454Z,101744.75
2024-04-23T17:05:57.053Z,101743.41
2024-04-23T17:08:24.555Z,101735.06
2024-04-23T17:10:51.902Z,101735.88
2024-04-23T17:13:21.619Z,101721.97
2024-04-23T17:15:48.469Z,101722.59
2024-04-23T17:18:15.259Z,101717.13
2024-04-23T17:20:43.052Z,101716.50
2024-04-23T17:23:09.834Z,101708.38
2024-04-23T17:25:37.821Z,101699.03
2024-04-23T17:28:06.227Z,101687.88
2024-04-23T17:30:33.070Z,101693.66
2024-04-23T17:32:59.840Z,101687.88
2024-04-23T17:35:29.259Z,101688.03
2024-04-23T17:37:56.084Z,101676.34
2024-04-23T17:40:25.083Z,101679.97
2024-04-23T17:42:52.336Z,101677.25
2024-04-23T17:45:20.474Z,101670.06
2024-04-23T17:47:48.600Z,101665.69
2024-04-23T17:50:16.658Z,101659.38
2024-04-23T17:52:55.479Z,101659.38
2024-04-23T17:55:28.870Z,101651.66
2024-04-23T17:57:56.561Z,101643.31
2024-04-23T18:00:27.390Z,101646.22
2024-04-23T18:02:56.547Z,101650.50
2024-04-23T18:05:24.929Z,101649.69
2024-04-23T18:07:55.113Z,101650.50
2024-04-23T18:10:27.677Z,101648.16
2024-04-23T18:12:58.383Z,101651.59
2024-04-23T18:15:26.102Z,101638.38
2024-04-23T18:17:56.353Z,101655.44
2024-04-23T18:20:24.367Z,101650.56
2024-04-23T18:22:51.035Z,101650.09
2024-04-23T18:25:20.432Z,101647.88
2024-04-23T18:27:47.421Z,101645.16
2024-04-23T18:30:16.301Z,101635.31
2024-04-23T18:32:43.168Z,101646.34
2024-04-23T18:35:12.143Z,101650.41
2024-04-23T18:37:43.071Z,101641.53
2024-04-23T18:40:13.132Z,101630.66
2024-04-23T18:42:42.331Z,101643.47
2024-04-23T18:45:09.147Z,101628.22
2024-04-23T18:47:36.562Z,101629.34
2024-04-23T18:50:06.127Z,101626.44
2024-04-23T18:52:33.895Z,101623.78
2024-04-23T18:55:01.768Z,101632.38
2024-04-23T18:57:28.538Z,101630.22
2024-04-23T18:59:55.174Z,101618.69
2024-04-23T19:02:23.643Z,101626.66
2024-04-23T19:04:50.565Z,101632.72
2024-04-23T19:07:17.457Z,101632.25
2024-04-23T19:09:49.011Z,101638.00
2024-04-23T19:12:17.510Z,101638.94
2024-04-23T19:14:45.591Z,101634.63
2024-04-23T19:17:13.217Z,101636.09
2024-04-23T19:19:39.849Z,101640.78
2024-04-23T19:22:06.537Z,101643.56
2024-04-23T19:24:33.176Z,101633.50
2024-04-23T19:26:59.792Z,101638.69
2024-04-23T19:29:26.523Z,101642.19
2024-04-23T19:31:53.468Z,101638.94
2024-04-23T19:34:20.648Z,101639.22
2024-04-23T19:36:47.778Z,101640.94
2024-04-23T19:39:15.037Z,101632.50
2024-04-23T19:41:42.144Z,101631.69
2024-04-23T19:44:10.549Z,101632.78
2024-04-23T19:46:41.990Z,101637.69
2024-04-23T19:49:09.345Z,101632.69
2024-04-23T19:51:35.997Z,101639.84
2024-04-23T19:54:05.871Z,101642.91
2024-04-23T19:56:54.631Z,101639.34
2024-04-23T19:59:23.344Z,101642.09
2024-04-23T20:01:50.359Z,101631.22
2024-04-23T20:04:18.152Z,101631.28
2024-04-23T20:06:48.947Z,101632.19
2024-04-23T20:13:08.607Z,101626.88
2024-04-23T20:16:01.419Z,101619.00
2024-04-23T20:18:30.525Z,101625.31
2024-04-23T20:21:00.154Z,101615.81
2024-04-23T20:23:28.393Z,101620.50
2024-04-23T20:25:54.975Z,101617.22
2024-04-23T20:28:23.108Z,101613.72
2024-04-23T20:30:49.691Z,101611.34
2024-04-23T20:33:16.348Z,101611.38
2024-04-23T20:35:43.008Z,101612.75
2024-04-23T20:38:09.907Z,101607.81
2024-04-23T20:40:36.916Z,101614.13
2024-04-23T20:43:03.617Z,101616.63
2024-04-23T20:45:30.918Z,101618.56
2024-04-23T20:47:57.717Z,101615.63
2024-04-23T20:50:24.472Z,101613.69
2024-04-23T20:52:51.154Z,101613.97
2024-04-23T20:55:17.801Z,101610.72
2024-04-23T20:57:47.199Z,101615.66
2024-04-23T21:00:14.166Z,101613.47
2024-04-23T21:02:41.200Z,101618.16
2024-04-23T21:05:07.883Z,101607.25
2024-04-23T21:07:34.602Z,101615.16
2024-04-23T21:10:01.574Z,101615.44
2024-04-23T21:12:31.234Z,101614.06
2024-04-23T21:14:57.796Z,101615.19
2024-04-23T21:17:26.232Z,101613.06
2024-04-23T21:19:52.952Z,101608.72
2024-04-23T21:22:21.288Z,101607.91
2024-04-23T21:24:47.885Z,101598.94
2024-04-23T21:27:15.343Z,101595.69
2024-04-23T21:29:42.970Z,101597.88
2024-04-23T21:32:09.668Z,101601.16
2024-04-23T21:34:36.317Z,101603.88
2024-04-23T21:37:02.965Z,101599.53
2024-04-23T21:39:29.606Z,101603.06
2024-04-23T21:41:58.205Z,101604.69
2024-04-23T21:44:26.189Z,101607.97
2024-04-23T21:46:52.901Z,101596.25
2024-04-23T21:49:20.110Z,101592.44
2024-04-23T21:52:09.410Z,101592.44
2024-04-23T21:54:38.425Z,101582.66
2024-04-23T21:57:05.137Z,101587.63
2024-04-23T21:59:32.581Z,101582.44
2024-04-23T22:01:59.250Z,101571.28
2024-04-23T22:04:25.936Z,101572.94
2024-04-23T22:06:54.752Z,101578.13
2024-04-23T22:09:22.159Z,101571.03
2024-04-23T22:11:48.946Z,101572.66
2024-04-23T22:14:15.643Z,101572.94
2024-04-23T22:16:45.725Z,101575.66
2024-04-23T22:19:14.528Z,101576.19
2024-04-23T22:21:42.255Z,101571.03
2024-04-23T22:24:15.065Z,101568.84
2024-04-23T22:26:41.688Z,101568.59
2024-04-23T22:29:08.301Z,101567.75
2024-04-23T22:31:35.041Z,101568.59
2024-04-23T22:34:01.639Z,101556.59
2024-04-23T22:36:29.768Z,101554.16
2024-04-23T22:38:58.903Z,101544.09
2024-04-23T22:41:25.676Z,101548.97
2024-04-23T22:43:54.502Z,101544.09
2024-04-23T22:46:21.259Z,101543.28
2024-04-23T22:48:47.903Z,101550.63
2024-04-23T22:51:15.674Z,101552.25
2024-04-23T22:53:42.326Z,101560.47
2024-04-23T22:56:08.911Z,101556.13
2024-04-23T22:58:35.542Z,101559.13
2024-04-23T23:01:02.153Z,101542.84
2024-04-23T23:03:28.846Z,101529.19
2024-04-23T23:05:55.453Z,101527.28
2024-04-23T23:08:22.092Z,101522.41
2024-04-23T23:10:48.796Z,101515.59
2024-04-23T23:13:17.966Z,101513.69
2024-04-23T23:15:46.879Z,101508.78
2024-04-23T23:18:13.572Z,101504.97
2024-04-23T23:20:40.140Z,101491.63
2024-04-23T23:23:06.793Z,101496.81
2024-04-23T23:25:33.403Z,101486.75
2024-04-23T23:28:00.016Z,101484.31
2024-04-23T23:30:26.608Z,101475.63
2024-04-23T23:32:54.271Z,101477.28
2024-04-23T23:35:20.956Z,101478.38
2024-04-23T23:37:47.592Z,101477.84
2024-04-23T23:40:14.270Z,101479.75
2024-04-23T23:42:40.882Z,101480.28
2024-04-23T23:45:10.426Z,101477.56
2024-04-23T23:47:37.546Z,101475.41
2024-04-23T23:50:04.702Z,101470.78
2024-04-23T23:52:34.097Z,101468.88
2024-04-23T23:55:03.679Z,101471.31
2024-04-23T23:57:30.343Z,101466.44
2024-04-23T23:59:59.477Z,101468.59
